sensor_id;sensor_type;location;lat;lon;timestamp;P1;durP1;ratioP1;P2;durP2;ratioP2
74528;SDS011;63009;52.584;5.932;2024-03-06T00:00:57;53.72;;;25.77;;
74528;SDS011;63009;52.584;5.932;2024-03-06T00:03:22;54.15;;;26.27;;
74528;SDS011;63009;52.584;5.932;2024-03-06T00:05:48;50.38;;;26.15;;
74528;SDS011;63009;52.584;5.932;2024-03-06T00:08:13;53.08;;;26.00;;
74528;SDS011;63009;52.584;5.932;2024-03-06T00:10:40;52.88;;;25.65;;
74528;SDS011;63009;52.584;5.932;2024-03-06T00:13:05;52.85;;;26.05;;
74528;SDS011;63009;52.584;5.932;2024-03-06T00:15:31;53.72;;;26.23;;
74528;SDS011;63009;52.584;5.932;2024-03-06T00:17:56;53.80;;;29.75;;
74528;SDS011;63009;52.584;5.932;2024-03-06T00:20:21;50.95;;;25.23;;
74528;SDS011;63009;52.584;5.932;2024-03-06T00:22:47;54.55;;;26.67;;
74528;SDS011;63009;52.584;5.932;2024-03-06T00:25:12;52.90;;;25.20;;
74528;SDS011;63009;52.584;5.932;2024-03-06T00:27:37;56.42;;;24.85;;
74528;SDS011;63009;52.584;5.932;2024-03-06T00:30:03;60.95;;;27.50;;
74528;SDS011;63009;52.584;5.932;2024-03-06T00:32:28;51.67;;;25.92;;
74528;SDS011;63009;52.584;5.932;2024-03-06T00:34:54;58.03;;;27.05;;
74528;SDS011;63009;52.584;5.932;2024-03-06T00:37:20;55.30;;;25.98;;
74528;SDS011;63009;52.584;5.932;2024-03-06T00:39:45;53.87;;;26.13;;
74528;SDS011;63009;52.584;5.932;2024-03-06T00:42:10;52.20;;;24.97;;
74528;SDS011;63009;52.584;5.932;2024-03-06T00:44:38;52.00;;;25.65;;
74528;SDS011;63009;52.584;5.932;2024-03-06T00:47:04;52.75;;;25.92;;
74528;SDS011;63009;52.584;5.932;2024-03-06T00:49:29;54.88;;;25.60;;
74528;SDS011;63009;52.584;5.932;2024-03-06T00:51:54;54.60;;;26.75;;
74528;SDS011;63009;52.584;5.932;2024-03-06T00:54:20;58.00;;;25.83;;
74528;SDS011;63009;52.584;5.932;2024-03-06T00:56:45;57.60;;;26.42;;
74528;SDS011;63009;52.584;5.932;2024-03-06T00:59:10;56.25;;;27.77;;
74528;SDS011;63009;52.584;5.932;2024-03-06T01:01:36;55.03;;;25.63;;
74528;SDS011;63009;52.584;5.932;2024-03-06T01:04:01;54.63;;;27.60;;
74528;SDS011;63009;52.584;5.932;2024-03-06T01:06:27;57.22;;;26.40;;
74528;SDS011;63009;52.584;5.932;2024-03-06T01:08:52;53.30;;;25.75;;
74528;SDS011;63009;52.584;5.932;2024-03-06T01:11:18;55.67;;;27.33;;
74528;SDS011;63009;52.584;5.932;2024-03-06T01:13:43;54.22;;;25.75;;
74528;SDS011;63009;52.584;5.932;2024-03-06T01:16:08;52.85;;;25.85;;
74528;SDS011;63009;52.584;5.932;2024-03-06T01:18:34;51.08;;;25.30;;
74528;SDS011;63009;52.584;5.932;2024-03-06T01:20:59;54.10;;;25.63;;
74528;SDS011;63009;52.584;5.932;2024-03-06T01:23:24;51.75;;;25.40;;
74528;SDS011;63009;52.584;5.932;2024-03-06T01:25:50;48.17;;;24.40;;
74528;SDS011;63009;52.584;5.932;2024-03-06T01:28:15;49.03;;;25.67;;
74528;SDS011;63009;52.584;5.932;2024-03-06T01:30:41;53.42;;;27.08;;
74528;SDS011;63009;52.584;5.932;2024-03-06T01:33:06;54.10;;;25.88;;
74528;SDS011;63009;52.584;5.932;2024-03-06T01:35:31;52.58;;;25.35;;
74528;SDS011;63009;52.584;5.932;2024-03-06T01:37:57;56.00;;;25.63;;
74528;SDS011;63009;52.584;5.932;2024-03-06T01:40:23;47.10;;;23.20;;
74528;SDS011;63009;52.584;5.932;2024-03-06T01:42:48;51.60;;;23.30;;
74528;SDS011;63009;52.584;5.932;2024-03-06T01:45:14;52.97;;;27.08;;
74528;SDS011;63009;52.584;5.932;2024-03-06T01:47:39;56.55;;;25.85;;
74528;SDS011;63009;52.584;5.932;2024-03-06T01:50:05;53.10;;;26.40;;
74528;SDS011;63009;52.584;5.932;2024-03-06T01:52:34;55.83;;;25.75;;
74528;SDS011;63009;52.584;5.932;2024-03-06T01:55:00;56.00;;;27.93;;
74528;SDS011;63009;52.584;5.932;2024-03-06T01:57:26;54.88;;;26.77;;
74528;SDS011;63009;52.584;5.932;2024-03-06T01:59:53;54.58;;;25.55;;
74528;SDS011;63009;52.584;5.932;2024-03-06T02:02:19;53.13;;;26.60;;
74528;SDS011;63009;52.584;5.932;2024-03-06T02:04:45;54.63;;;25.23;;
74528;SDS011;63009;52.584;5.932;2024-03-06T02:07:11;55.15;;;25.42;;
74528;SDS011;63009;52.584;5.932;2024-03-06T02:09:39;56.50;;;26.67;;
74528;SDS011;63009;52.584;5.932;2024-03-06T02:12:05;59.85;;;27.30;;
74528;SDS011;63009;52.584;5.932;2024-03-06T02:14:35;55.95;;;25.83;;
74528;SDS011;63009;52.584;5.932;2024-03-06T02:17:01;53.85;;;27.67;;
74528;SDS011;63009;52.584;5.932;2024-03-06T02:19:42;49.95;;;26.05;;
74528;SDS011;63009;52.584;5.932;2024-03-06T02:22:09;57.55;;;26.40;;
74528;SDS011;63009;52.584;5.932;2024-03-06T02:24:35;55.72;;;26.83;;
74528;SDS011;63009;52.584;5.932;2024-03-06T02:27:01;55.45;;;26.88;;
74528;SDS011;63009;52.584;5.932;2024-03-06T02:29:27;58.00;;;26.27;;
74528;SDS011;63009;52.584;5.932;2024-03-06T02:31:52;58.92;;;26.80;;
74528;SDS011;63009;52.584;5.932;2024-03-06T02:34:18;51.13;;;25.42;;
74528;SDS011;63009;52.584;5.932;2024-03-06T02:36:43;56.15;;;26.00;;
74528;SDS011;63009;52.584;5.932;2024-03-06T02:39:08;54.10;;;26.05;;
74528;SDS011;63009;52.584;5.932;2024-03-06T02:41:35;54.50;;;26.70;;
74528;SDS011;63009;52.584;5.932;2024-03-06T02:44:01;58.08;;;26.50;;
74528;SDS011;63009;52.584;5.932;2024-03-06T02:46:27;60.60;;;27.92;;
74528;SDS011;63009;52.584;5.932;2024-03-06T02:48:53;60.25;;;28.88;;
74528;SDS011;63009;52.584;5.932;2024-03-06T02:51:19;58.00;;;26.80;;
74528;SDS011;63009;52.584;5.932;2024-03-06T02:53:45;57.80;;;27.13;;
74528;SDS011;63009;52.584;5.932;2024-03-06T02:56:17;57.83;;;26.65;;
74528;SDS011;63009;52.584;5.932;2024-03-06T02:58:43;61.05;;;27.33;;
74528;SDS011;63009;52.584;5.932;2024-03-06T03:01:09;60.40;;;26.67;;
74528;SDS011;63009;52.584;5.932;2024-03-06T03:03:35;58.58;;;27.15;;
74528;SDS011;63009;52.584;5.932;2024-03-06T03:06:01;62.72;;;28.05;;
74528;SDS011;63009;52.584;5.932;2024-03-06T03:08:26;58.70;;;27.88;;
74528;SDS011;63009;52.584;5.932;2024-03-06T03:10:52;59.42;;;25.05;;
74528;SDS011;63009;52.584;5.932;2024-03-06T03:13:17;65.47;;;28.83;;
74528;SDS011;63009;52.584;5.932;2024-03-06T03:15:42;58.97;;;28.33;;
74528;SDS011;63009;52.584;5.932;2024-03-06T03:18:08;65.40;;;27.83;;
74528;SDS011;63009;52.584;5.932;2024-03-06T03:20:36;63.22;;;28.10;;
74528;SDS011;63009;52.584;5.932;2024-03-06T03:23:01;60.17;;;28.50;;
74528;SDS011;63009;52.584;5.932;2024-03-06T03:25:27;56.13;;;26.80;;
74528;SDS011;63009;52.584;5.932;2024-03-06T03:27:52;56.85;;;25.83;;
74528;SDS011;63009;52.584;5.932;2024-03-06T03:30:18;59.80;;;26.90;;
74528;SDS011;63009;52.584;5.932;2024-03-06T03:35:12;56.95;;;24.92;;
74528;SDS011;63009;52.584;5.932;2024-03-06T03:37:37;54.58;;;25.15;;
74528;SDS011;63009;52.584;5.932;2024-03-06T03:40:02;56.42;;;27.48;;
74528;SDS011;63009;52.584;5.932;2024-03-06T03:42:28;49.15;;;24.15;;
74528;SDS011;63009;52.584;5.932;2024-03-06T03:44:53;48.72;;;24.48;;
74528;SDS011;63009;52.584;5.932;2024-03-06T03:47:19;55.63;;;26.60;;
74528;SDS011;63009;52.584;5.932;2024-03-06T03:49:44;53.45;;;25.60;;
74528;SDS011;63009;52.584;5.932;2024-03-06T03:52:10;52.78;;;25.13;;
74528;SDS011;63009;52.584;5.932;2024-03-06T03:54:37;56.97;;;26.27;;
74528;SDS011;63009;52.584;5.932;2024-03-06T03:57:02;54.50;;;25.85;;
74528;SDS011;63009;52.584;5.932;2024-03-06T03:59:27;51.63;;;26.20;;
74528;SDS011;63009;52.584;5.932;2024-03-06T04:01:53;55.47;;;25.20;;
74528;SDS011;63009;52.584;5.932;2024-03-06T04:04:18;61.28;;;26.60;;
74528;SDS011;63009;52.584;5.932;2024-03-06T04:06:44;52.15;;;23.95;;
74528;SDS011;63009;52.584;5.932;2024-03-06T04:09:10;55.60;;;24.40;;
74528;SDS011;63009;52.584;5.932;2024-03-06T04:11:36;51.58;;;25.75;;
74528;SDS011;63009;52.584;5.932;2024-03-06T04:14:02;54.97;;;24.27;;
74528;SDS011;63009;52.584;5.932;2024-03-06T04:16:34;61.17;;;25.95;;
74528;SDS011;63009;52.584;5.932;2024-03-06T04:18:59;52.63;;;24.27;;
74528;SDS011;63009;52.584;5.932;2024-03-06T04:21:25;54.50;;;27.77;;
74528;SDS011;63009;52.584;5.932;2024-03-06T04:23:51;50.15;;;23.50;;
74528;SDS011;63009;52.584;5.932;2024-03-06T04:26:16;54.10;;;26.58;;
74528;SDS011;63009;52.584;5.932;2024-03-06T04:28:42;55.55;;;25.42;;
74528;SDS011;63009;52.584;5.932;2024-03-06T04:31:08;55.38;;;25.30;;
74528;SDS011;63009;52.584;5.932;2024-03-06T04:33:34;50.03;;;24.83;;
74528;SDS011;63009;52.584;5.932;2024-03-06T04:36:03;49.33;;;23.45;;
74528;SDS011;63009;52.584;5.932;2024-03-06T04:38:32;52.42;;;24.27;;
74528;SDS011;63009;52.584;5.932;2024-03-06T04:40:57;49.97;;;23.40;;
74528;SDS011;63009;52.584;5.932;2024-03-06T04:43:23;57.00;;;25.75;;
74528;SDS011;63009;52.584;5.932;2024-03-06T04:45:49;54.03;;;26.17;;
74528;SDS011;63009;52.584;5.932;2024-03-06T04:48:14;59.28;;;24.08;;
74528;SDS011;63009;52.584;5.932;2024-03-06T04:50:40;56.85;;;24.38;;
74528;SDS011;63009;52.584;5.932;2024-03-06T04:53:06;50.85;;;24.75;;
74528;SDS011;63009;52.584;5.932;2024-03-06T04:55:31;54.17;;;25.75;;
74528;SDS011;63009;52.584;5.932;2024-03-06T04:57:57;53.65;;;27.73;;
74528;SDS011;63009;52.584;5.932;2024-03-06T05:00:22;50.30;;;24.70;;
74528;SDS011;63009;52.584;5.932;2024-03-06T05:02:48;49.08;;;24.23;;
74528;SDS011;63009;52.584;5.932;2024-03-06T05:05:14;51.97;;;23.60;;
74528;SDS011;63009;52.584;5.932;2024-03-06T05:07:40;56.42;;;24.15;;
74528;SDS011;63009;52.584;5.932;2024-03-06T05:10:05;53.90;;;25.40;;
74528;SDS011;63009;52.584;5.932;2024-03-06T05:12:32;55.78;;;23.58;;
74528;SDS011;63009;52.584;5.932;2024-03-06T05:14:59;49.97;;;24.35;;
74528;SDS011;63009;52.584;5.932;2024-03-06T05:17:25;50.58;;;24.05;;
74528;SDS011;63009;52.584;5.932;2024-03-06T05:19:50;47.13;;;22.45;;
74528;SDS011;63009;52.584;5.932;2024-03-06T05:22:16;49.83;;;23.95;;
74528;SDS011;63009;52.584;5.932;2024-03-06T05:24:42;50.63;;;24.75;;
74528;SDS011;63009;52.584;5.932;2024-03-06T05:27:08;52.55;;;25.40;;
74528;SDS011;63009;52.584;5.932;2024-03-06T05:29:35;47.00;;;22.65;;
74528;SDS011;63009;52.584;5.932;2024-03-06T05:32:01;46.92;;;22.80;;
74528;SDS011;63009;52.584;5.932;2024-03-06T05:34:28;51.08;;;25.00;;
74528;SDS011;63009;52.584;5.932;2024-03-06T05:36:54;47.60;;;23.33;;
74528;SDS011;63009;52.584;5.932;2024-03-06T05:39:20;51.53;;;24.02;;
74528;SDS011;63009;52.584;5.932;2024-03-06T05:41:45;49.08;;;22.92;;
74528;SDS011;63009;52.584;5.932;2024-03-06T05:44:10;51.15;;;24.38;;
74528;SDS011;63009;52.584;5.932;2024-03-06T05:46:36;49.92;;;23.13;;
74528;SDS011;63009;52.584;5.932;2024-03-06T05:49:01;50.03;;;23.52;;
74528;SDS011;63009;52.584;5.932;2024-03-06T05:51:27;47.63;;;23.73;;
74528;SDS011;63009;52.584;5.932;2024-03-06T05:53:53;42.42;;;22.38;;
74528;SDS011;63009;52.584;5.932;2024-03-06T05:56:19;44.92;;;22.73;;
74528;SDS011;63009;52.584;5.932;2024-03-06T05:58:44;38.00;;;19.58;;
74528;SDS011;63009;52.584;5.932;2024-03-06T06:01:14;40.63;;;18.42;;
74528;SDS011;63009;52.584;5.932;2024-03-06T06:03:41;34.60;;;18.42;;
74528;SDS011;63009;52.584;5.932;2024-03-06T06:06:06;34.40;;;17.10;;
74528;SDS011;63009;52.584;5.932;2024-03-06T06:08:33;32.50;;;17.45;;
74528;SDS011;63009;52.584;5.932;2024-03-06T06:10:59;32.42;;;15.48;;
74528;SDS011;63009;52.584;5.932;2024-03-06T06:13:25;30.83;;;15.52;;
74528;SDS011;63009;52.584;5.932;2024-03-06T06:15:50;32.67;;;15.95;;
74528;SDS011;63009;52.584;5.932;2024-03-06T06:18:16;33.38;;;16.48;;
74528;SDS011;63009;52.584;5.932;2024-03-06T06:20:41;29.75;;;15.60;;
74528;SDS011;63009;52.584;5.932;2024-03-06T06:23:07;31.15;;;16.50;;
74528;SDS011;63009;52.584;5.932;2024-03-06T06:25:41;36.05;;;18.13;;
74528;SDS011;63009;52.584;5.932;2024-03-06T06:28:12;29.85;;;15.40;;
74528;SDS011;63009;52.584;5.932;2024-03-06T06:30:38;30.30;;;16.10;;
74528;SDS011;63009;52.584;5.932;2024-03-06T06:33:04;30.63;;;16.05;;
74528;SDS011;63009;52.584;5.932;2024-03-06T06:35:30;32.42;;;15.63;;
74528;SDS011;63009;52.584;5.932;2024-03-06T06:37:56;33.97;;;15.68;;
74528;SDS011;63009;52.584;5.932;2024-03-06T06:40:21;31.05;;;15.80;;
74528;SDS011;63009;52.584;5.932;2024-03-06T06:42:47;28.50;;;15.15;;
74528;SDS011;63009;52.584;5.932;2024-03-06T06:45:17;32.00;;;17.20;;
74528;SDS011;63009;52.584;5.932;2024-03-06T06:47:43;35.90;;;16.27;;
74528;SDS011;63009;52.584;5.932;2024-03-06T06:50:09;34.13;;;17.30;;
74528;SDS011;63009;52.584;5.932;2024-03-06T06:52:34;33.50;;;18.55;;
74528;SDS011;63009;52.584;5.932;2024-03-06T06:55:00;36.80;;;17.58;;
74528;SDS011;63009;52.584;5.932;2024-03-06T06:57:27;37.33;;;19.75;;
74528;SDS011;63009;52.584;5.932;2024-03-06T06:59:52;37.45;;;19.23;;
74528;SDS011;63009;52.584;5.932;2024-03-06T07:02:18;38.42;;;20.15;;
74528;SDS011;63009;52.584;5.932;2024-03-06T07:04:43;44.30;;;21.27;;
74528;SDS011;63009;52.584;5.932;2024-03-06T07:07:09;34.03;;;17.27;;
74528;SDS011;63009;52.584;5.932;2024-03-06T07:09:34;32.50;;;16.40;;
74528;SDS011;63009;52.584;5.932;2024-03-06T07:12:00;29.92;;;17.15;;
74528;SDS011;63009;52.584;5.932;2024-03-06T07:14:25;32.72;;;17.50;;
74528;SDS011;63009;52.584;5.932;2024-03-06T07:16:50;33.08;;;18.77;;
74528;SDS011;63009;52.584;5.932;2024-03-06T07:19:16;31.58;;;17.65;;
74528;SDS011;63009;52.584;5.932;2024-03-06T07:21:42;38.67;;;17.33;;
74528;SDS011;63009;52.584;5.932;2024-03-06T07:24:07;37.85;;;19.13;;
74528;SDS011;63009;52.584;5.932;2024-03-06T07:26:33;37.15;;;19.00;;
74528;SDS011;63009;52.584;5.932;2024-03-06T07:29:01;39.45;;;19.98;;
74528;SDS011;63009;52.584;5.932;2024-03-06T07:31:28;36.35;;;19.90;;
74528;SDS011;63009;52.584;5.932;2024-03-06T07:33:54;33.45;;;20.13;;
74528;SDS011;63009;52.584;5.932;2024-03-06T07:36:20;41.72;;;21.05;;
74528;SDS011;63009;52.584;5.932;2024-03-06T07:38:46;45.38;;;20.85;;
74528;SDS011;63009;52.584;5.932;2024-03-06T07:41:12;44.67;;;19.85;;
74528;SDS011;63009;52.584;5.932;2024-03-06T07:43:37;44.00;;;24.52;;
74528;SDS011;63009;52.584;5.932;2024-03-06T07:46:03;48.63;;;23.42;;
74528;SDS011;63009;52.584;5.932;2024-03-06T07:48:35;42.92;;;20.55;;
74528;SDS011;63009;52.584;5.932;2024-03-06T07:51:01;47.22;;;20.05;;
74528;SDS011;63009;52.584;5.932;2024-03-06T07:53:26;44.17;;;21.45;;
74528;SDS011;63009;52.584;5.932;2024-03-06T07:55:52;41.57;;;20.93;;
74528;SDS011;63009;52.584;5.932;2024-03-06T07:58:17;45.67;;;21.98;;
74528;SDS011;63009;52.584;5.932;2024-03-06T08:00:42;45.90;;;20.95;;
74528;SDS011;63009;52.584;5.932;2024-03-06T08:03:08;51.97;;;23.55;;
74528;SDS011;63009;52.584;5.932;2024-03-06T08:05:33;54.20;;;26.15;;
74528;SDS011;63009;52.584;5.932;2024-03-06T08:07:59;48.88;;;24.25;;
74528;SDS011;63009;52.584;5.932;2024-03-06T08:10:24;55.37;;;24.80;;
74528;SDS011;63009;52.584;5.932;2024-03-06T08:12:49;54.40;;;25.85;;
74528;SDS011;63009;52.584;5.932;2024-03-06T08:15:15;53.40;;;23.73;;
74528;SDS011;63009;52.584;5.932;2024-03-06T08:17:41;52.35;;;25.55;;
74528;SDS011;63009;52.584;5.932;2024-03-06T08:20:08;60.00;;;27.17;;
74528;SDS011;63009;52.584;5.932;2024-03-06T08:22:35;55.90;;;26.85;;
74528;SDS011;63009;52.584;5.932;2024-03-06T08:27:30;52.33;;;25.27;;
74528;SDS011;63009;52.584;5.932;2024-03-06T08:29:55;50.38;;;24.15;;
74528;SDS011;63009;52.584;5.932;2024-03-06T08:32:20;49.63;;;24.10;;
74528;SDS011;63009;52.584;5.932;2024-03-06T08:34:46;54.15;;;24.98;;
74528;SDS011;63009;52.584;5.932;2024-03-06T08:37:13;45.95;;;22.95;;
74528;SDS011;63009;52.584;5.932;2024-03-06T08:39:39;51.22;;;24.73;;
74528;SDS011;63009;52.584;5.932;2024-03-06T08:42:04;49.05;;;22.70;;
74528;SDS011;63009;52.584;5.932;2024-03-06T08:44:30;49.03;;;22.52;;
74528;SDS011;63009;52.584;5.932;2024-03-06T08:46:55;46.10;;;24.03;;
74528;SDS011;63009;52.584;5.932;2024-03-06T08:49:21;52.65;;;23.77;;
74528;SDS011;63009;52.584;5.932;2024-03-06T08:51:46;43.90;;;21.17;;
74528;SDS011;63009;52.584;5.932;2024-03-06T08:54:11;44.67;;;20.65;;
74528;SDS011;63009;52.584;5.932;2024-03-06T08:56:37;46.28;;;21.55;;
74528;SDS011;63009;52.584;5.932;2024-03-06T08:59:02;47.80;;;21.02;;
74528;SDS011;63009;52.584;5.932;2024-03-06T09:01:27;48.93;;;23.87;;
74528;SDS011;63009;52.584;5.932;2024-03-06T09:03:53;45.50;;;20.42;;
74528;SDS011;63009;52.584;5.932;2024-03-06T09:06:18;47.60;;;22.38;;
74528;SDS011;63009;52.584;5.932;2024-03-06T09:08:44;51.63;;;21.88;;
74528;SDS011;63009;52.584;5.932;2024-03-06T09:11:09;45.55;;;21.35;;
74528;SDS011;63009;52.584;5.932;2024-03-06T09:13:34;39.50;;;19.10;;
74528;SDS011;63009;52.584;5.932;2024-03-06T09:16:00;47.67;;;20.75;;
74528;SDS011;63009;52.584;5.932;2024-03-06T09:18:25;45.80;;;21.58;;
74528;SDS011;63009;52.584;5.932;2024-03-06T09:20:51;41.33;;;19.00;;
74528;SDS011;63009;52.584;5.932;2024-03-06T09:23:16;42.38;;;18.98;;
74528;SDS011;63009;52.584;5.932;2024-03-06T09:25:42;43.03;;;20.17;;
74528;SDS011;63009;52.584;5.932;2024-03-06T09:28:08;40.40;;;19.25;;
74528;SDS011;63009;52.584;5.932;2024-03-06T09:30:33;39.58;;;18.90;;
74528;SDS011;63009;52.584;5.932;2024-03-06T09:32:59;42.88;;;18.77;;
74528;SDS011;63009;52.584;5.932;2024-03-06T09:35:24;40.67;;;18.27;;
74528;SDS011;63009;52.584;5.932;2024-03-06T09:37:50;38.47;;;17.87;;
74528;SDS011;63009;52.584;5.932;2024-03-06T09:40:21;38.80;;;18.23;;
74528;SDS011;63009;52.584;5.932;2024-03-06T09:42:49;39.17;;;17.13;;
74528;SDS011;63009;52.584;5.932;2024-03-06T09:45:15;33.78;;;16.17;;
74528;SDS011;63009;52.584;5.932;2024-03-06T09:47:41;36.53;;;16.63;;
74528;SDS011;63009;52.584;5.932;2024-03-06T09:50:08;37.08;;;16.95;;
74528;SDS011;63009;52.584;5.932;2024-03-06T09:52:34;37.28;;;17.38;;
74528;SDS011;63009;52.584;5.932;2024-03-06T09:55:01;34.42;;;15.63;;
74528;SDS011;63009;52.584;5.932;2024-03-06T09:57:28;33.17;;;16.02;;
74528;SDS011;63009;52.584;5.932;2024-03-06T09:59:54;31.80;;;15.82;;
74528;SDS011;63009;52.584;5.932;2024-03-06T10:02:39;33.92;;;16.15;;
74528;SDS011;63009;52.584;5.932;2024-03-06T10:05:22;34.08;;;16.00;;
74528;SDS011;63009;52.584;5.932;2024-03-06T10:07:49;36.65;;;16.00;;
74528;SDS011;63009;52.584;5.932;2024-03-06T10:10:16;37.80;;;18.63;;
74528;SDS011;63009;52.584;5.932;2024-03-06T10:12:42;31.60;;;17.23;;
74528;SDS011;63009;52.584;5.932;2024-03-06T10:15:09;31.90;;;15.95;;
74528;SDS011;63009;52.584;5.932;2024-03-06T10:17:37;33.80;;;16.35;;
74528;SDS011;63009;52.584;5.932;2024-03-06T10:20:19;34.22;;;16.67;;
74528;SDS011;63009;52.584;5.932;2024-03-06T10:22:52;35.08;;;15.07;;
74528;SDS011;63009;52.584;5.932;2024-03-06T10:25:19;33.25;;;16.02;;
74528;SDS011;63009;52.584;5.932;2024-03-06T10:27:46;32.33;;;16.45;;
74528;SDS011;63009;52.584;5.932;2024-03-06T10:30:12;34.92;;;17.27;;
74528;SDS011;63009;52.584;5.932;2024-03-06T10:32:41;33.78;;;17.30;;
74528;SDS011;63009;52.584;5.932;2024-03-06T10:35:17;34.22;;;16.45;;
74528;SDS011;63009;52.584;5.932;2024-03-06T10:37:43;36.38;;;16.98;;
74528;SDS011;63009;52.584;5.932;2024-03-06T10:40:14;30.80;;;15.27;;
74528;SDS011;63009;52.584;5.932;2024-03-06T10:42:42;37.55;;;16.75;;
74528;SDS011;63009;52.584;5.932;2024-03-06T10:45:10;30.50;;;15.52;;
74528;SDS011;63009;52.584;5.932;2024-03-06T10:47:40;34.60;;;17.83;;
74528;SDS011;63009;52.584;5.932;2024-03-06T10:50:06;34.42;;;16.90;;
74528;SDS011;63009;52.584;5.932;2024-03-06T10:52:35;31.55;;;16.55;;
74528;SDS011;63009;52.584;5.932;2024-03-06T10:55:03;33.55;;;16.92;;
74528;SDS011;63009;52.584;5.932;2024-03-06T10:57:29;36.28;;;18.65;;
74528;SDS011;63009;52.584;5.932;2024-03-06T10:59:56;36.55;;;18.15;;
74528;SDS011;63009;52.584;5.932;2024-03-06T11:02:25;34.17;;;17.27;;
74528;SDS011;63009;52.584;5.932;2024-03-06T11:04:52;37.55;;;18.20;;
74528;SDS011;63009;52.584;5.932;2024-03-06T11:07:18;36.20;;;18.33;;
74528;SDS011;63009;52.584;5.932;2024-03-06T11:09:44;31.90;;;16.83;;
74528;SDS011;63009;52.584;5.932;2024-03-06T11:12:31;34.50;;;16.27;;
74528;SDS011;63009;52.584;5.932;2024-03-06T11:14:57;32.38;;;15.82;;
74528;SDS011;63009;52.584;5.932;2024-03-06T11:17:25;29.92;;;16.42;;
74528;SDS011;63009;52.584;5.932;2024-03-06T11:33:14;30.25;;;14.70;;
74528;SDS011;63009;52.584;5.932;2024-03-06T11:35:43;31.88;;;15.35;;
74528;SDS011;63009;52.584;5.932;2024-03-06T11:38:51;32.65;;;17.42;;
74528;SDS011;63009;52.584;5.932;2024-03-06T11:41:21;30.10;;;16.00;;
74528;SDS011;63009;52.584;5.932;2024-03-06T11:43:48;31.20;;;15.45;;
74528;SDS011;63009;52.584;5.932;2024-03-06T11:46:17;30.77;;;16.05;;
74528;SDS011;63009;52.584;5.932;2024-03-06T11:48:43;31.60;;;17.13;;
74528;SDS011;63009;52.584;5.932;2024-03-06T11:51:08;31.55;;;15.75;;
74528;SDS011;63009;52.584;5.932;2024-03-06T11:53:34;32.60;;;15.65;;
74528;SDS011;63009;52.584;5.932;2024-03-06T11:56:07;28.20;;;15.02;;
74528;SDS011;63009;52.584;5.932;2024-03-06T11:58:33;35.05;;;15.68;;
74528;SDS011;63009;52.584;5.932;2024-03-06T12:01:01;30.65;;;15.48;;
74528;SDS011;63009;52.584;5.932;2024-03-06T12:03:27;33.22;;;17.63;;
74528;SDS011;63009;52.584;5.932;2024-03-06T12:05:53;31.52;;;15.60;;
74528;SDS011;63009;52.584;5.932;2024-03-06T12:08:19;30.90;;;17.15;;
74528;SDS011;63009;52.584;5.932;2024-03-06T12:10:45;29.80;;;14.07;;
74528;SDS011;63009;52.584;5.932;2024-03-06T12:13:12;31.73;;;14.85;;
74528;SDS011;63009;52.584;5.932;2024-03-06T12:15:38;27.30;;;14.68;;
74528;SDS011;63009;52.584;5.932;2024-03-06T12:18:04;30.27;;;15.10;;
74528;SDS011;63009;52.584;5.932;2024-03-06T12:20:30;33.40;;;15.23;;
74528;SDS011;63009;52.584;5.932;2024-03-06T12:22:56;27.05;;;14.05;;
74528;SDS011;63009;52.584;5.932;2024-03-06T12:25:23;30.20;;;14.15;;
74528;SDS011;63009;52.584;5.932;2024-03-06T12:27:49;31.15;;;15.43;;
74528;SDS011;63009;52.584;5.932;2024-03-06T12:30:16;33.22;;;15.50;;
74528;SDS011;63009;52.584;5.932;2024-03-06T12:32:43;30.90;;;14.77;;
74528;SDS011;63009;52.584;5.932;2024-03-06T12:35:09;32.72;;;16.25;;
74528;SDS011;63009;52.584;5.932;2024-03-06T12:37:35;28.13;;;14.98;;
74528;SDS011;63009;52.584;5.932;2024-03-06T12:40:02;28.80;;;15.50;;
74528;SDS011;63009;52.584;5.932;2024-03-06T12:42:38;30.63;;;15.70;;
74528;SDS011;63009;52.584;5.932;2024-03-06T12:45:04;30.55;;;15.20;;
74528;SDS011;63009;52.584;5.932;2024-03-06T12:47:29;27.13;;;14.88;;
74528;SDS011;63009;52.584;5.932;2024-03-06T12:49:55;29.45;;;14.77;;
74528;SDS011;63009;52.584;5.932;2024-03-06T12:52:20;30.30;;;14.18;;
74528;SDS011;63009;52.584;5.932;2024-03-06T12:54:45;31.05;;;15.48;;
74528;SDS011;63009;52.584;5.932;2024-03-06T12:57:11;29.98;;;15.50;;
74528;SDS011;63009;52.584;5.932;2024-03-06T12:59:36;26.80;;;14.43;;
74528;SDS011;63009;52.584;5.932;2024-03-06T13:02:01;25.70;;;14.07;;
74528;SDS011;63009;52.584;5.932;2024-03-06T13:04:30;27.67;;;14.43;;
74528;SDS011;63009;52.584;5.932;2024-03-06T13:06:55;29.10;;;15.50;;
74528;SDS011;63009;52.584;5.932;2024-03-06T13:09:22;28.13;;;14.35;;
74528;SDS011;63009;52.584;5.932;2024-03-06T13:11:48;28.90;;;14.77;;
74528;SDS011;63009;52.584;5.932;2024-03-06T13:14:13;28.40;;;13.23;;
74528;SDS011;63009;52.584;5.932;2024-03-06T13:16:39;23.48;;;12.63;;
74528;SDS011;63009;52.584;5.932;2024-03-06T13:19:05;26.48;;;13.63;;
74528;SDS011;63009;52.584;5.932;2024-03-06T13:21:30;27.67;;;13.73;;
74528;SDS011;63009;52.584;5.932;2024-03-06T13:23:55;31.27;;;15.30;;
74528;SDS011;63009;52.584;5.932;2024-03-06T13:26:21;27.20;;;14.60;;
74528;SDS011;63009;52.584;5.932;2024-03-06T13:28:47;27.67;;;14.40;;
74528;SDS011;63009;52.584;5.932;2024-03-06T13:31:12;30.00;;;14.48;;
74528;SDS011;63009;52.584;5.932;2024-03-06T13:33:38;27.02;;;14.45;;
74528;SDS011;63009;52.584;5.932;2024-03-06T13:36:08;23.50;;;12.60;;
74528;SDS011;63009;52.584;5.932;2024-03-06T13:38:35;24.23;;;12.88;;
74528;SDS011;63009;52.584;5.932;2024-03-06T13:41:03;26.13;;;14.57;;
74528;SDS011;63009;52.584;5.932;2024-03-06T13:43:30;27.30;;;14.25;;
74528;SDS011;63009;52.584;5.932;2024-03-06T13:45:56;26.42;;;13.32;;
74528;SDS011;63009;52.584;5.932;2024-03-06T13:48:22;27.40;;;14.63;;
74528;SDS011;63009;52.584;5.932;2024-03-06T13:50:49;24.65;;;13.07;;
74528;SDS011;63009;52.584;5.932;2024-03-06T13:53:15;23.20;;;12.30;;
74528;SDS011;63009;52.584;5.932;2024-03-06T13:55:40;25.08;;;12.77;;
74528;SDS011;63009;52.584;5.932;2024-03-06T13:58:06;25.15;;;13.18;;
74528;SDS011;63009;52.584;5.932;2024-03-06T14:00:32;25.45;;;12.40;;
74528;SDS011;63009;52.584;5.932;2024-03-06T14:02:59;22.67;;;11.00;;
74528;SDS011;63009;52.584;5.932;2024-03-06T14:05:25;22.70;;;11.98;;
74528;SDS011;63009;52.584;5.932;2024-03-06T14:07:51;23.45;;;11.95;;
74528;SDS011;63009;52.584;5.932;2024-03-06T14:10:16;23.90;;;10.82;;
74528;SDS011;63009;52.584;5.932;2024-03-06T14:12:44;21.40;;;11.70;;
74528;SDS011;63009;52.584;5.932;2024-03-06T14:15:10;20.08;;;10.02;;
74528;SDS011;63009;52.584;5.932;2024-03-06T14:17:41;21.85;;;11.30;;
74528;SDS011;63009;52.584;5.932;2024-03-06T14:20:07;21.88;;;11.18;;
74528;SDS011;63009;52.584;5.932;2024-03-06T14:22:40;24.15;;;14.13;;
74528;SDS011;63009;52.584;5.932;2024-03-06T14:27:32;24.60;;;11.77;;
74528;SDS011;63009;52.584;5.932;2024-03-06T14:30:00;23.33;;;12.60;;
74528;SDS011;63009;52.584;5.932;2024-03-06T14:32:29;24.05;;;11.93;;
74528;SDS011;63009;52.584;5.932;2024-03-06T14:34:57;24.55;;;12.30;;
74528;SDS011;63009;52.584;5.932;2024-03-06T14:37:25;26.63;;;12.75;;